sensor_id;sensor_type;location;lat;lon;timestamp;P1;durP1;ratioP1;P2;durP2;ratioP2
78336;SDS011;67610;51.588;7.002;2023-04-03T00:01:08;6.65;;;3.70;;
78336;SDS011;67610;51.588;7.002;2023-04-03T00:03:34;7.40;;;3.60;;
78336;SDS011;67610;51.588;7.002;2023-04-03T00:05:59;7.43;;;3.80;;
78336;SDS011;67610;51.588;7.002;2023-04-03T00:08:25;6.47;;;3.58;;
78336;SDS011;67610;51.588;7.002;2023-04-03T00:10:51;6.05;;;3.22;;
78336;SDS011;67610;51.588;7.002;2023-04-03T00:13:16;5.55;;;3.15;;
78336;SDS011;67610;51.588;7.002;2023-04-03T00:15:41;6.90;;;3.20;;
78336;SDS011;67610;51.588;7.002;2023-04-03T00:18:07;6.28;;;3.20;;
78336;SDS011;67610;51.588;7.002;2023-04-03T00:20:33;5.45;;;2.85;;
78336;SDS011;67610;51.588;7.002;2023-04-03T00:22:59;4.88;;;2.80;;
78336;SDS011;67610;51.588;7.002;2023-04-03T00:25:25;6.15;;;2.80;;
78336;SDS011;67610;51.588;7.002;2023-04-03T00:27:51;6.22;;;3.05;;
78336;SDS011;67610;51.588;7.002;2023-04-03T00:30:17;5.78;;;2.65;;
78336;SDS011;67610;51.588;7.002;2023-04-03T00:32:44;6.53;;;3.08;;
78336;SDS011;67610;51.588;7.002;2023-04-03T00:35:10;5.68;;;3.00;;
78336;SDS011;67610;51.588;7.002;2023-04-03T00:37:35;5.63;;;2.85;;
78336;SDS011;67610;51.588;7.002;2023-04-03T00:40:01;6.50;;;2.60;;
78336;SDS011;67610;51.588;7.002;2023-04-03T00:42:28;5.85;;;2.50;;
78336;SDS011;67610;51.588;7.002;2023-04-03T00:47:21;4.55;;;2.55;;
78336;SDS011;67610;51.588;7.002;2023-04-03T00:49:48;5.53;;;2.60;;
78336;SDS011;67610;51.588;7.002;2023-04-03T00:52:16;4.25;;;2.25;;
78336;SDS011;67610;51.588;7.002;2023-04-03T00:54:45;4.40;;;2.42;;
78336;SDS011;67610;51.588;7.002;2023-04-03T00:57:12;5.30;;;2.08;;
78336;SDS011;67610;51.588;7.002;2023-04-03T00:59:41;4.68;;;2.30;;
78336;SDS011;67610;51.588;7.002;2023-04-03T01:02:10;5.07;;;2.22;;
78336;SDS011;67610;51.588;7.002;2023-04-03T01:04:39;5.55;;;2.50;;
78336;SDS011;67610;51.588;7.002;2023-04-03T01:07:07;4.55;;;2.10;;
78336;SDS011;67610;51.588;7.002;2023-04-03T01:09:35;6.40;;;2.30;;
78336;SDS011;67610;51.588;7.002;2023-04-03T01:14:52;7.15;;;2.17;;
78336;SDS011;67610;51.588;7.002;2023-04-03T01:17:34;3.33;;;1.70;;
78336;SDS011;67610;51.588;7.002;2023-04-03T01:25:28;5.97;;;2.22;;
78336;SDS011;67610;51.588;7.002;2023-04-03T01:27:53;4.43;;;1.95;;
78336;SDS011;67610;51.588;7.002;2023-04-03T01:30:20;6.05;;;2.35;;
78336;SDS011;67610;51.588;7.002;2023-04-03T01:32:48;4.53;;;2.00;;
78336;SDS011;67610;51.588;7.002;2023-04-03T01:35:14;4.03;;;1.80;;
78336;SDS011;67610;51.588;7.002;2023-04-03T01:37:39;4.88;;;2.03;;
78336;SDS011;67610;51.588;7.002;2023-04-03T01:40:05;6.22;;;2.20;;
78336;SDS011;67610;51.588;7.002;2023-04-03T01:42:32;2.78;;;1.60;;
78336;SDS011;67610;51.588;7.002;2023-04-03T01:44:57;3.05;;;1.65;;
78336;SDS011;67610;51.588;7.002;2023-04-03T01:47:22;6.00;;;1.92;;
78336;SDS011;67610;51.588;7.002;2023-04-03T01:49:48;6.00;;;1.90;;
78336;SDS011;67610;51.588;7.002;2023-04-03T01:52:13;4.72;;;2.15;;
78336;SDS011;67610;51.588;7.002;2023-04-03T01:54:39;4.88;;;1.92;;
78336;SDS011;67610;51.588;7.002;2023-04-03T01:57:04;4.30;;;1.80;;
78336;SDS011;67610;51.588;7.002;2023-04-03T01:59:30;6.20;;;1.90;;
78336;SDS011;67610;51.588;7.002;2023-04-03T02:01:55;3.40;;;1.70;;
78336;SDS011;67610;51.588;7.002;2023-04-03T02:04:21;5.85;;;1.75;;
78336;SDS011;67610;51.588;7.002;2023-04-03T02:06:46;3.70;;;1.52;;
78336;SDS011;67610;51.588;7.002;2023-04-03T02:09:12;3.08;;;1.73;;
78336;SDS011;67610;51.588;7.002;2023-04-03T02:11:37;3.97;;;2.00;;
78336;SDS011;67610;51.588;7.002;2023-04-03T02:14:02;3.78;;;1.77;;
78336;SDS011;67610;51.588;7.002;2023-04-03T02:16:28;5.53;;;1.80;;
78336;SDS011;67610;51.588;7.002;2023-04-03T02:18:53;4.82;;;2.03;;
78336;SDS011;67610;51.588;7.002;2023-04-03T02:21:19;6.20;;;1.98;;
78336;SDS011;67610;51.588;7.002;2023-04-03T02:23:45;5.70;;;1.75;;
78336;SDS011;67610;51.588;7.002;2023-04-03T02:26:11;8.27;;;2.00;;
78336;SDS011;67610;51.588;7.002;2023-04-03T02:28:38;4.03;;;1.80;;
78336;SDS011;67610;51.588;7.002;2023-04-03T02:31:05;5.80;;;2.35;;
78336;SDS011;67610;51.588;7.002;2023-04-03T02:33:31;5.53;;;1.90;;
78336;SDS011;67610;51.588;7.002;2023-04-03T02:35:57;4.82;;;1.85;;
78336;SDS011;67610;51.588;7.002;2023-04-03T02:38:24;2.95;;;1.70;;
78336;SDS011;67610;51.588;7.002;2023-04-03T02:40:50;3.45;;;1.70;;
78336;SDS011;67610;51.588;7.002;2023-04-03T02:43:16;2.55;;;1.60;;
78336;SDS011;67610;51.588;7.002;2023-04-03T02:45:42;4.32;;;1.75;;
78336;SDS011;67610;51.588;7.002;2023-04-03T02:48:07;5.82;;;1.90;;
78336;SDS011;67610;51.588;7.002;2023-04-03T02:50:33;7.28;;;2.05;;
78336;SDS011;67610;51.588;7.002;2023-04-03T02:52:58;3.33;;;1.70;;
78336;SDS011;67610;51.588;7.002;2023-04-03T02:55:23;4.50;;;1.73;;
78336;SDS011;67610;51.588;7.002;2023-04-03T02:57:49;3.72;;;1.60;;
78336;SDS011;67610;51.588;7.002;2023-04-03T03:00:14;5.55;;;2.05;;
78336;SDS011;67610;51.588;7.002;2023-04-03T03:02:40;4.10;;;1.80;;
78336;SDS011;67610;51.588;7.002;2023-04-03T03:05:05;4.82;;;1.70;;
78336;SDS011;67610;51.588;7.002;2023-04-03T03:07:32;5.00;;;1.77;;
78336;SDS011;67610;51.588;7.002;2023-04-03T03:09:58;5.40;;;1.90;;
78336;SDS011;67610;51.588;7.002;2023-04-03T03:12:23;4.38;;;1.70;;
78336;SDS011;67610;51.588;7.002;2023-04-03T03:14:49;5.13;;;2.00;;
78336;SDS011;67610;51.588;7.002;2023-04-03T03:17:15;3.53;;;1.60;;
78336;SDS011;67610;51.588;7.002;2023-04-03T03:19:41;6.10;;;2.08;;
78336;SDS011;67610;51.588;7.002;2023-04-03T03:22:07;3.15;;;1.80;;
78336;SDS011;67610;51.588;7.002;2023-04-03T03:24:32;4.50;;;2.05;;
78336;SDS011;67610;51.588;7.002;2023-04-03T03:26:57;7.68;;;2.30;;
78336;SDS011;67610;51.588;7.002;2023-04-03T03:29:23;4.43;;;1.80;;
78336;SDS011;67610;51.588;7.002;2023-04-03T03:31:48;4.82;;;1.80;;
78336;SDS011;67610;51.588;7.002;2023-04-03T03:34:14;4.43;;;2.20;;
78336;SDS011;67610;51.588;7.002;2023-04-03T03:36:39;6.28;;;2.20;;
78336;SDS011;67610;51.588;7.002;2023-04-03T03:39:06;5.32;;;1.85;;
78336;SDS011;67610;51.588;7.002;2023-04-03T03:41:31;6.93;;;2.17;;
78336;SDS011;67610;51.588;7.002;2023-04-03T03:43:57;5.93;;;2.00;;
78336;SDS011;67610;51.588;7.002;2023-04-03T03:46:22;4.20;;;2.05;;
78336;SDS011;67610;51.588;7.002;2023-04-03T03:48:48;4.78;;;1.90;;
78336;SDS011;67610;51.588;7.002;2023-04-03T03:51:13;4.80;;;1.95;;
78336;SDS011;67610;51.588;7.002;2023-04-03T03:53:38;3.75;;;1.90;;
78336;SDS011;67610;51.588;7.002;2023-04-03T03:56:04;5.10;;;1.90;;
78336;SDS011;67610;51.588;7.002;2023-04-03T03:58:30;4.47;;;1.90;;
78336;SDS011;67610;51.588;7.002;2023-04-03T04:00:56;7.57;;;2.42;;
78336;SDS011;67610;51.588;7.002;2023-04-03T04:03:21;5.13;;;1.90;;
78336;SDS011;67610;51.588;7.002;2023-04-03T04:05:47;4.43;;;1.98;;
78336;SDS011;67610;51.588;7.002;2023-04-03T04:08:12;3.33;;;1.90;;
78336;SDS011;67610;51.588;7.002;2023-04-03T04:10:38;2.65;;;1.70;;
78336;SDS011;67610;51.588;7.002;2023-04-03T04:13:03;5.82;;;1.90;;
78336;SDS011;67610;51.588;7.002;2023-04-03T04:15:29;6.68;;;2.10;;
78336;SDS011;67610;51.588;7.002;2023-04-03T04:17:54;6.57;;;2.38;;
78336;SDS011;67610;51.588;7.002;2023-04-03T04:20:20;4.07;;;1.77;;
78336;SDS011;67610;51.588;7.002;2023-04-03T04:22:45;7.20;;;2.10;;
78336;SDS011;67610;51.588;7.002;2023-04-03T04:25:11;5.35;;;2.03;;
78336;SDS011;67610;51.588;7.002;2023-04-03T04:27:36;3.70;;;1.75;;
78336;SDS011;67610;51.588;7.002;2023-04-03T04:30:03;3.80;;;1.80;;
78336;SDS011;67610;51.588;7.002;2023-04-03T04:32:29;4.88;;;2.00;;
78336;SDS011;67610;51.588;7.002;2023-04-03T04:34:55;4.68;;;1.90;;
78336;SDS011;67610;51.588;7.002;2023-04-03T04:37:20;5.13;;;2.00;;
78336;SDS011;67610;51.588;7.002;2023-04-03T04:39:45;4.20;;;1.95;;
78336;SDS011;67610;51.588;7.002;2023-04-03T04:42:11;5.22;;;2.05;;
78336;SDS011;67610;51.588;7.002;2023-04-03T04:44:38;4.65;;;1.90;;
78336;SDS011;67610;51.588;7.002;2023-04-03T04:47:04;4.10;;;1.83;;
78336;SDS011;67610;51.588;7.002;2023-04-03T04:49:30;6.68;;;2.28;;
78336;SDS011;67610;51.588;7.002;2023-04-03T04:51:55;4.63;;;1.92;;
78336;SDS011;67610;51.588;7.002;2023-04-03T04:54:21;4.63;;;2.08;;
78336;SDS011;67610;51.588;7.002;2023-04-03T04:56:46;3.97;;;1.80;;
78336;SDS011;67610;51.588;7.002;2023-04-03T04:59:12;3.75;;;1.80;;
78336;SDS011;67610;51.588;7.002;2023-04-03T05:01:37;6.70;;;2.10;;
78336;SDS011;67610;51.588;7.002;2023-04-03T05:04:03;4.15;;;2.00;;
78336;SDS011;67610;51.588;7.002;2023-04-03T05:06:28;5.00;;;1.80;;
78336;SDS011;67610;51.588;7.002;2023-04-03T05:08:55;4.55;;;2.15;;
78336;SDS011;67610;51.588;7.002;2023-04-03T05:11:21;4.65;;;1.95;;
78336;SDS011;67610;51.588;7.002;2023-04-03T05:13:46;4.72;;;2.00;;
78336;SDS011;67610;51.588;7.002;2023-04-03T05:16:12;5.20;;;2.30;;
78336;SDS011;67610;51.588;7.002;2023-04-03T05:18:37;4.53;;;2.20;;
78336;SDS011;67610;51.588;7.002;2023-04-03T05:21:03;6.72;;;2.15;;
78336;SDS011;67610;51.588;7.002;2023-04-03T05:23:28;3.13;;;2.00;;
78336;SDS011;67610;51.588;7.002;2023-04-03T05:25:54;4.32;;;2.05;;
78336;SDS011;67610;51.588;7.002;2023-04-03T05:28:19;6.60;;;2.47;;
78336;SDS011;67610;51.588;7.002;2023-04-03T05:30:44;4.90;;;2.20;;
78336;SDS011;67610;51.588;7.002;2023-04-03T05:33:10;4.63;;;1.90;;
78336;SDS011;67610;51.588;7.002;2023-04-03T05:35:36;4.05;;;1.80;;
78336;SDS011;67610;51.588;7.002;2023-04-03T05:38:05;3.75;;;1.67;;
78336;SDS011;67610;51.588;7.002;2023-04-03T05:40:30;3.83;;;1.92;;
78336;SDS011;67610;51.588;7.002;2023-04-03T05:42:56;5.13;;;1.85;;
78336;SDS011;67610;51.588;7.002;2023-04-03T05:45:21;5.18;;;2.28;;
78336;SDS011;67610;51.588;7.002;2023-04-03T05:47:47;5.53;;;2.20;;
78336;SDS011;67610;51.588;7.002;2023-04-03T05:50:12;3.33;;;1.90;;
78336;SDS011;67610;51.588;7.002;2023-04-03T05:52:38;4.70;;;1.70;;
78336;SDS011;67610;51.588;7.002;2023-04-03T05:55:08;4.78;;;1.90;;
78336;SDS011;67610;51.588;7.002;2023-04-03T05:57:33;6.03;;;2.10;;
78336;SDS011;67610;51.588;7.002;2023-04-03T05:59:58;5.95;;;2.40;;
78336;SDS011;67610;51.588;7.002;2023-04-03T06:02:24;4.50;;;1.95;;
78336;SDS011;67610;51.588;7.002;2023-04-03T06:04:51;7.00;;;2.25;;
78336;SDS011;67610;51.588;7.002;2023-04-03T06:07:18;7.00;;;2.33;;
78336;SDS011;67610;51.588;7.002;2023-04-03T06:09:46;7.97;;;2.10;;
78336;SDS011;67610;51.588;7.002;2023-04-03T06:12:12;5.97;;;2.40;;
78336;SDS011;67610;51.588;7.002;2023-04-03T06:14:38;5.28;;;2.00;;
78336;SDS011;67610;51.588;7.002;2023-04-03T06:17:03;4.70;;;2.00;;
78336;SDS011;67610;51.588;7.002;2023-04-03T06:19:29;6.25;;;2.30;;
78336;SDS011;67610;51.588;7.002;2023-04-03T06:21:55;6.93;;;2.30;;
78336;SDS011;67610;51.588;7.002;2023-04-03T06:24:21;4.57;;;1.92;;
78336;SDS011;67610;51.588;7.002;2023-04-03T06:26:48;3.70;;;1.92;;
78336;SDS011;67610;51.588;7.002;2023-04-03T06:29:14;5.65;;;2.17;;
78336;SDS011;67610;51.588;7.002;2023-04-03T06:31:40;6.38;;;2.33;;
78336;SDS011;67610;51.588;7.002;2023-04-03T06:34:06;5.45;;;2.15;;
78336;SDS011;67610;51.588;7.002;2023-04-03T06:36:32;5.60;;;2.00;;
78336;SDS011;67610;51.588;7.002;2023-04-03T06:38:57;5.78;;;2.10;;
78336;SDS011;67610;51.588;7.002;2023-04-03T06:41:23;6.00;;;2.17;;
78336;SDS011;67610;51.588;7.002;2023-04-03T06:43:48;5.90;;;2.00;;
78336;SDS011;67610;51.588;7.002;2023-04-03T06:46:17;5.63;;;1.75;;
78336;SDS011;67610;51.588;7.002;2023-04-03T06:48:44;5.25;;;2.00;;
78336;SDS011;67610;51.588;7.002;2023-04-03T06:51:20;6.97;;;2.55;;
78336;SDS011;67610;51.588;7.002;2023-04-03T06:53:48;3.88;;;2.10;;
78336;SDS011;67610;51.588;7.002;2023-04-03T06:56:14;5.88;;;2.13;;
78336;SDS011;67610;51.588;7.002;2023-04-03T06:58:40;5.05;;;2.20;;
78336;SDS011;67610;51.588;7.002;2023-04-03T07:01:06;5.43;;;2.00;;
78336;SDS011;67610;51.588;7.002;2023-04-03T07:03:32;4.05;;;1.90;;
78336;SDS011;67610;51.588;7.002;2023-04-03T07:05:57;4.70;;;1.83;;
78336;SDS011;67610;51.588;7.002;2023-04-03T07:08:23;9.23;;;2.55;;
78336;SDS011;67610;51.588;7.002;2023-04-03T07:10:50;3.20;;;1.73;;
78336;SDS011;67610;51.588;7.002;2023-04-03T07:13:16;6.15;;;1.85;;
78336;SDS011;67610;51.588;7.002;2023-04-03T07:15:41;3.53;;;1.80;;
78336;SDS011;67610;51.588;7.002;2023-04-03T07:18:06;5.85;;;1.90;;
78336;SDS011;67610;51.588;7.002;2023-04-03T07:20:32;6.60;;;2.00;;
78336;SDS011;67610;51.588;7.002;2023-04-03T07:22:57;6.57;;;2.20;;
78336;SDS011;67610;51.588;7.002;2023-04-03T07:25:23;5.25;;;2.10;;
78336;SDS011;67610;51.588;7.002;2023-04-03T07:27:48;4.32;;;2.20;;
78336;SDS011;67610;51.588;7.002;2023-04-03T07:30:14;4.07;;;2.05;;
78336;SDS011;67610;51.588;7.002;2023-04-03T07:32:39;4.70;;;2.08;;
78336;SDS011;67610;51.588;7.002;2023-04-03T07:35:05;2.92;;;1.80;;
78336;SDS011;67610;51.588;7.002;2023-04-03T07:37:31;6.18;;;2.10;;
78336;SDS011;67610;51.588;7.002;2023-04-03T07:39:57;5.75;;;2.90;;
78336;SDS011;67610;51.588;7.002;2023-04-03T07:42:24;4.05;;;1.90;;
78336;SDS011;67610;51.588;7.002;2023-04-03T07:44:51;4.55;;;1.90;;
78336;SDS011;67610;51.588;7.002;2023-04-03T07:47:17;3.47;;;1.75;;
78336;SDS011;67610;51.588;7.002;2023-04-03T07:49:43;5.32;;;1.92;;
78336;SDS011;67610;51.588;7.002;2023-04-03T07:52:08;6.18;;;2.00;;
78336;SDS011;67610;51.588;7.002;2023-04-03T07:54:34;7.32;;;2.30;;
78336;SDS011;67610;51.588;7.002;2023-04-03T07:57:00;5.32;;;1.80;;
78336;SDS011;67610;51.588;7.002;2023-04-03T07:59:26;4.10;;;2.10;;
78336;SDS011;67610;51.588;7.002;2023-04-03T08:01:51;4.70;;;1.80;;
78336;SDS011;67610;51.588;7.002;2023-04-03T08:04:17;4.95;;;2.40;;
78336;SDS011;67610;51.588;7.002;2023-04-03T08:06:43;8.82;;;1.90;;
78336;SDS011;67610;51.588;7.002;2023-04-03T08:09:08;3.40;;;1.60;;
78336;SDS011;67610;51.588;7.002;2023-04-03T08:11:34;4.38;;;1.98;;
78336;SDS011;67610;51.588;7.002;2023-04-03T08:14:01;3.55;;;1.92;;
78336;SDS011;67610;51.588;7.002;2023-04-03T08:16:27;4.22;;;2.08;;
78336;SDS011;67610;51.588;7.002;2023-04-03T08:18:53;5.05;;;2.35;;
78336;SDS011;67610;51.588;7.002;2023-04-03T08:21:19;4.65;;;2.10;;
78336;SDS011;67610;51.588;7.002;2023-04-03T08:23:47;4.13;;;1.80;;
78336;SDS011;67610;51.588;7.002;2023-04-03T08:26:16;6.75;;;2.15;;
78336;SDS011;67610;51.588;7.002;2023-04-03T08:28:43;4.25;;;1.88;;
78336;SDS011;67610;51.588;7.002;2023-04-03T08:31:10;4.95;;;2.00;;
78336;SDS011;67610;51.588;7.002;2023-04-03T08:33:37;4.03;;;1.90;;
78336;SDS011;67610;51.588;7.002;2023-04-03T08:36:04;5.22;;;1.95;;
78336;SDS011;67610;51.588;7.002;2023-04-03T08:38:40;4.75;;;2.35;;
78336;SDS011;67610;51.588;7.002;2023-04-03T08:41:27;3.00;;;1.65;;
78336;SDS011;67610;51.588;7.002;2023-04-03T08:44:02;4.53;;;1.90;;
78336;SDS011;67610;51.588;7.002;2023-04-03T08:46:35;4.18;;;1.95;;
78336;SDS011;67610;51.588;7.002;2023-04-03T08:49:28;4.75;;;1.80;;
78336;SDS011;67610;51.588;7.002;2023-04-03T08:51:56;5.65;;;2.17;;
78336;SDS011;67610;51.588;7.002;2023-04-03T08:54:30;4.18;;;2.00;;
78336;SDS011;67610;51.588;7.002;2023-04-03T08:56:59;5.78;;;2.33;;
78336;SDS011;67610;51.588;7.002;2023-04-03T08:59:31;3.60;;;1.67;;
78336;SDS011;67610;51.588;7.002;2023-04-03T09:02:01;4.50;;;2.05;;
78336;SDS011;67610;51.588;7.002;2023-04-03T09:04:37;3.42;;;1.67;;
78336;SDS011;67610;51.588;7.002;2023-04-03T09:07:08;4.68;;;1.90;;
78336;SDS011;67610;51.588;7.002;2023-04-03T09:09:43;5.00;;;1.73;;
78336;SDS011;67610;51.588;7.002;2023-04-03T09:12:21;3.70;;;1.65;;
78336;SDS011;67610;51.588;7.002;2023-04-03T09:17:31;3.20;;;1.83;;
78336;SDS011;67610;51.588;7.002;2023-04-03T09:20:26;5.35;;;1.80;;
78336;SDS011;67610;51.588;7.002;2023-04-03T09:28:32;3.83;;;1.60;;
78336;SDS011;67610;51.588;7.002;2023-04-03T09:31:20;3.95;;;1.63;;
78336;SDS011;67610;51.588;7.002;2023-04-03T09:33:49;4.18;;;1.70;;
78336;SDS011;67610;51.588;7.002;2023-04-03T09:39:20;2.67;;;1.60;;
78336;SDS011;67610;51.588;7.002;2023-04-03T09:41:55;2.78;;;1.60;;
78336;SDS011;67610;51.588;7.002;2023-04-03T09:44:32;3.20;;;1.70;;
78336;SDS011;67610;51.588;7.002;2023-04-03T09:52:39;2.15;;;1.40;;
78336;SDS011;67610;51.588;7.002;2023-04-03T09:55:27;2.20;;;1.38;;
78336;SDS011;67610;51.588;7.002;2023-04-03T09:57:59;4.40;;;1.40;;
78336;SDS011;67610;51.588;7.002;2023-04-03T10:03:00;2.97;;;1.50;;
78336;SDS011;67610;51.588;7.002;2023-04-03T10:05:31;3.30;;;1.55;;
78336;SDS011;67610;51.588;7.002;2023-04-03T10:10:36;2.80;;;1.58;;
78336;SDS011;67610;51.588;7.002;2023-04-03T10:15:57;3.38;;;1.60;;
78336;SDS011;67610;51.588;7.002;2023-04-03T10:26:48;3.28;;;1.52;;
78336;SDS011;67610;51.588;7.002;2023-04-03T10:34:44;2.63;;;1.70;;
78336;SDS011;67610;51.588;7.002;2023-04-03T10:40:13;4.03;;;1.67;;
78336;SDS011;67610;51.588;7.002;2023-04-03T10:42:52;2.45;;;1.40;;
78336;SDS011;67610;51.588;7.002;2023-04-03T10:50:48;2.30;;;1.40;;
78336;SDS011;67610;51.588;7.002;2023-04-03T10:54:24;2.42;;;1.45;;
78336;SDS011;67610;51.588;7.002;2023-04-03T11:01:33;2.55;;;1.75;;
78336;SDS011;67610;51.588;7.002;2023-04-03T11:04:04;4.45;;;1.73;;
78336;SDS011;67610;51.588;7.002;2023-04-03T11:06:32;5.32;;;1.90;;
78336;SDS011;67610;51.588;7.002;2023-04-03T11:09:05;3.67;;;1.85;;
78336;SDS011;67610;51.588;7.002;2023-04-03T11:11:39;5.90;;;1.77;;
78336;SDS011;67610;51.588;7.002;2023-04-03T11:14:13;6.25;;;1.50;;
78336;SDS011;67610;51.588;7.002;2023-04-03T11:16:47;2.65;;;1.70;;
78336;SDS011;67610;51.588;7.002;2023-04-03T11:19:20;3.55;;;1.70;;
78336;SDS011;67610;51.588;7.002;2023-04-03T11:24:24;4.88;;;1.70;;
78336;SDS011;67610;51.588;7.002;2023-04-03T11:26:52;3.55;;;1.70;;
78336;SDS011;67610;51.588;7.002;2023-04-03T11:29:21;2.70;;;1.40;;
78336;SDS011;67610;51.588;7.002;2023-04-03T11:36:54;2.60;;;1.50;;
78336;SDS011;67610;51.588;7.002;2023-04-03T11:39:25;2.72;;;1.50;;
78336;SDS011;67610;51.588;7.002;2023-04-03T11:41:54;3.15;;;1.75;;
78336;SDS011;67610;51.588;7.002;2023-04-03T11:44:38;3.15;;;1.60;;
78336;SDS011;67610;51.588;7.002;2023-04-03T11:47:08;4.22;;;1.60;;
78336;SDS011;67610;51.588;7.002;2023-04-03T11:49:53;5.25;;;1.50;;
78336;SDS011;67610;51.588;7.002;2023-04-03T12:05:55;3.67;;;1.60;;
78336;SDS011;67610;51.588;7.002;2023-04-03T12:08:28;3.70;;;1.30;;
78336;SDS011;67610;51.588;7.002;2023-04-03T12:13:33;3.00;;;1.50;;
78336;SDS011;67610;51.588;7.002;2023-04-03T12:16:05;2.40;;;1.42;;
78336;SDS011;67610;51.588;7.002;2023-04-03T12:21:23;2.53;;;1.48;;
78336;SDS011;67610;51.588;7.002;2023-04-03T12:34:31;2.58;;;1.33;;
78336;SDS011;67610;51.588;7.002;2023-04-03T12:40:10;2.10;;;1.30;;
78336;SDS011;67610;51.588;7.002;2023-04-03T12:43:02;4.53;;;1.40;;
78336;SDS011;67610;51.588;7.002;2023-04-03T12:45:53;3.15;;;1.60;;
78336;SDS011;67610;51.588;7.002;2023-04-03T12:48:28;2.58;;;1.30;;
78336;SDS011;67610;51.588;7.002;2023-04-03T12:50:57;2.53;;;1.50;;
78336;SDS011;67610;51.588;7.002;2023-04-03T12:55:53;4.13;;;1.60;;
78336;SDS011;67610;51.588;7.002;2023-04-03T12:58:29;3.50;;;1.30;;
78336;SDS011;67610;51.588;7.002;2023-04-03T13:01:00;3.08;;;1.65;;
78336;SDS011;67610;51.588;7.002;2023-04-03T13:03:34;2.90;;;1.40;;
78336;SDS011;67610;51.588;7.002;2023-04-03T13:06:02;3.67;;;1.73;;
78336;SDS011;67610;51.588;7.002;2023-04-03T13:08:29;2.45;;;1.30;;
78336;SDS011;67610;51.588;7.002;2023-04-03T13:11:01;2.95;;;1.55;;
78336;SDS011;67610;51.588;7.002;2023-04-03T13:13:28;2.53;;;1.40;;
78336;SDS011;67610;51.588;7.002;2023-04-03T13:15:54;5.63;;;1.77;;
78336;SDS011;67610;51.588;7.002;2023-04-03T13:18:25;3.95;;;1.30;;
78336;SDS011;67610;51.588;7.002;2023-04-03T13:20:53;1.98;;;1.20;;
78336;SDS011;67610;51.588;7.002;2023-04-03T13:23:28;2.55;;;1.40;;
78336;SDS011;67610;51.588;7.002;2023-04-03T13:25:54;2.63;;;1.40;;
78336;SDS011;67610;51.588;7.002;2023-04-03T13:28:23;4.22;;;1.83;;
78336;SDS011;67610;51.588;7.002;2023-04-03T13:30:57;2.65;;;1.60;;
78336;SDS011;67610;51.588;7.002;2023-04-03T13:33:35;4.45;;;1.48;;
78336;SDS011;67610;51.588;7.002;2023-04-03T13:38:42;2.90;;;1.60;;
78336;SDS011;67610;51.588;7.002;2023-04-03T13:41:29;2.70;;;1.48;;
78336;SDS011;67610;51.588;7.002;2023-04-03T13:43:56;2.75;;;1.70;;
78336;SDS011;67610;51.588;7.002;2023-04-03T13:46:24;2.90;;;1.60;;
78336;SDS011;67610;51.588;7.002;2023-04-03T13:48:54;2.20;;;1.60;;
78336;SDS011;67610;51.588;7.002;2023-04-03T13:51:26;3.42;;;1.60;;
78336;SDS011;67610;51.588;7.002;2023-04-03T13:53:57;3.35;;;1.60;;
78336;SDS011;67610;51.588;7.002;2023-04-03T14:01:55;3.13;;;1.50;;
78336;SDS011;67610;51.588;7.002;2023-04-03T14:07:13;2.92;;;1.50;;
78336;SDS011;67610;51.588;7.002;2023-04-03T14:09:41;2.75;;;1.35;;
78336;SDS011;67610;51.588;7.002;2023-04-03T14:15:03;2.90;;;1.50;;
78336;SDS011;67610;51.588;7.002;2023-04-03T14:17:35;2.55;;;1.40;;
78336;SDS011;67610;51.588;7.002;2023-04-03T14:20:02;2.65;;;1.60;;
78336;SDS011;67610;51.588;7.002;2023-04-03T14:22:30;2.40;;;1.40;;
78336;SDS011;67610;51.588;7.002;2023-04-03T14:24:57;6.25;;;1.60;;
78336;SDS011;67610;51.588;7.002;2023-04-03T14:27:34;2.40;;;1.30;;
78336;SDS011;67610;51.588;7.002;2023-04-03T14:30:05;2.70;;;1.42;;
78336;SDS011;67610;51.588;7.002;2023-04-03T14:32:33;3.00;;;1.58;;
78336;SDS011;67610;51.588;7.002;2023-04-03T14:34:59;4.13;;;1.35;;
78336;SDS011;67610;51.588;7.002;2023-04-03T14:37:27;3.78;;;1.40;;
78336;SDS011;67610;51.588;7.002;2023-04-03T14:39:55;3.38;;;1.63;;
78336;SDS011;67610;51.588;7.002;2023-04-03T14:42:24;3.45;;;1.65;;
78336;SDS011;67610;51.588;7.002;2023-04-03T14:44:52;3.80;;;1.73;;
78336;SDS011;67610;51.588;7.002;2023-04-03T14:47:22;3.92;;;2.10;;
78336;SDS011;67610;51.588;7.002;2023-04-03T14:49:51;2.63;;;1.60;;
78336;SDS011;67610;51.588;7.002;2023-04-03T14:52:22;5.40;;;1.92;;
78336;SDS011;67610;51.588;7.002;2023-04-03T14:54:50;4.25;;;1.52;;
78336;SDS011;67610;51.588;7.002;2023-04-03T14:57:16;3.85;;;1.63;;
78336;SDS011;67610;51.588;7.002;2023-04-03T14:59:43;3.10;;;1.55;;
78336;SDS011;67610;51.588;7.002;2023-04-03T15:02:26;3.28;;;1.50;;
78336;SDS011;67610;51.588;7.002;2023-04-03T15:04:56;3.65;;;1.58;;
78336;SDS011;67610;51.588;7.002;2023-04-03T15:07:23;2.60;;;1.42;;
78336;SDS011;67610;51.588;7.002;2023-04-03T15:09:50;2.45;;;1.42;;
78336;SDS011;67610;51.588;7.002;2023-04-03T15:12:16;3.95;;;1.60;;
78336;SDS011;67610;51.588;7.002;2023-04-03T15:14:41;3.22;;;1.70;;
78336;SDS011;67610;51.588;7.002;2023-04-03T15:17:08;2.88;;;1.52;;
78336;SDS011;67610;51.588;7.002;2023-04-03T15:19:39;2.90;;;1.60;;
78336;SDS011;67610;51.588;7.002;2023-04-03T15:22:05;2.88;;;1.50;;
78336;SDS011;67610;51.588;7.002;2023-04-03T15:24:30;3.97;;;1.63;;
78336;SDS011;67610;51.588;7.002;2023-04-03T15:26:56;2.38;;;1.38;;
78336;SDS011;67610;51.588;7.002;2023-04-03T15:29:21;3.03;;;1.50;;
78336;SDS011;67610;51.588;7.002;2023-04-03T15:31:47;3.83;;;1.60;;
78336;SDS011;67610;51.588;7.002;2023-04-03T15:34:14;3.03;;;1.60;;
78336;SDS011;67610;51.588;7.002;2023-04-03T15:36:41;4.22;;;1.80;;
78336;SDS011;67610;51.588;7.002;2023-04-03T15:39:06;4.50;;;1.85;;
78336;SDS011;67610;51.588;7.002;2023-04-03T15:41:32;2.60;;;1.70;;
78336;SDS011;67610;51.588;7.002;2023-04-03T15:43:57;3.05;;;1.50;;
78336;SDS011;67610;51.588;7.002;2023-04-03T15:46:22;4.00;;;1.50;;
78336;SDS011;67610;51.588;7.002;2023-04-03T15:48:48;2.85;;;1.60;;
78336;SDS011;67610;51.588;7.002;2023-04-03T15:51:14;3.45;;;1.67;;
78336;SDS011;67610;51.588;7.002;2023-04-03T15:53:40;3.55;;;1.63;;
78336;SDS011;67610;51.588;7.002;2023-04-03T15:56:05;2.92;;;1.50;;
78336;SDS011;67610;51.588;7.002;2023-04-03T15:58:33;3.25;;;2.05;;
78336;SDS011;67610;51.588;7.002;2023-04-03T16:01:01;4.43;;;2.03;;
78336;SDS011;67610;51.588;7.002;2023-04-03T16:03:27;4.22;;;1.70;;
78336;SDS011;67610;51.588;7.002;2023-04-03T16:05:53;3.53;;;1.80;;
78336;SDS011;67610;51.588;7.002;2023-04-03T16:08:18;4.50;;;1.80;;
78336;SDS011;67610;51.588;7.002;2023-04-03T16:10:44;3.38;;;1.55;;
78336;SDS011;67610;51.588;7.002;2023-04-03T16:13:12;2.97;;;1.60;;
78336;SDS011;67610;51.588;7.002;2023-04-03T16:15:38;3.20;;;1.60;;
78336;SDS011;67610;51.588;7.002;2023-04-03T16:18:04;3.45;;;1.60;;
78336;SDS011;67610;51.588;7.002;2023-04-03T16:20:30;2.85;;;1.60;;
78336;SDS011;67610;51.588;7.002;2023-04-03T16:22:57;3.25;;;1.58;;
78336;SDS011;67610;51.588;7.002;2023-04-03T16:25:24;3.25;;;1.63;;
78336;SDS011;67610;51.588;7.002;2023-04-03T16:27:50;3.20;;;1.52;;
78336;SDS011;67610;51.588;7.002;2023-04-03T16:30:16;3.50;;;1.70;;
78336;SDS011;67610;51.588;7.002;2023-04-03T16:32:41;2.95;;;1.50;;
78336;SDS011;67610;51.588;7.002;2023-04-03T16:35:07;3.28;;;1.50;;
78336;SDS011;67610;51.588;7.002;2023-04-03T16:37:35;3.75;;;1.60;;
78336;SDS011;67610;51.588;7.002;2023-04-03T16:40:01;3.55;;;1.55;;
78336;SDS011;67610;51.588;7.002;2023-04-03T16:42:27;3.97;;;1.67;;
78336;SDS011;67610;51.588;7.002;2023-04-03T16:44:53;4.32;;;1.80;;
78336;SDS011;67610;51.588;7.002;2023-04-03T16:47:18;3.10;;;1.70;;
78336;SDS011;67610;51.588;7.002;2023-04-03T16:49:45;3.53;;;1.73;;
78336;SDS011;67610;51.588;7.002;2023-04-03T16:52:10;3.97;;;1.80;;